AirNav   Air Wisconsin Up To $57,000 Bonus
 
 1312 users online  

F92 Kingfisher Airport
Kingfisher, Oklahoma, USA

GOING TO KINGFISHER?


FAA INFORMATION EFFECTIVE 08 OCTOBER 2020

Location

FAA Identifier: F92
Lat/Long: 35-52-36.0200N 097-57-10.5750W
35-52.600333N 097-57.176250W
35.8766722,-97.9529375
(estimated)
Elevation: 1072 ft. / 327 m (estimated)
Variation: 07E (1985)
From city: 1 mile NW of KINGFISHER, OK
Time zone: UTC -5 (UTC -6 during Standard Time)
Zip code: 73750

Airport Operations

Airport use: Open to the public
Activation date: 10/1945
Control tower: no
ARTCC: FORT WORTH CENTER
FSS: MC ALESTER FLIGHT SERVICE STATION
NOTAMs facility: MLC (NOTAM-D service available)
Attendance: UNATNDD
Wind indicator: lighted
Segmented circle: no
Lights: DUSK-DAWN MIRL RY 18/36 PRESET LOW INTST; TO INCR INTST ACTVT - CTAF.

Airport Communications

CTAF: 122.9

Nearby radio navigation aids

VOR radial/distance  VOR name  Freq  Var
IFIr021/5.0KINGFISHER VORTAC114.7009E
PWAr316/25.4WILEY POST VOR/DME113.4008E
ENDr178/28.1VANCE VORTAC115.4005E
ODGr187/30.9WOODRING VOR/DME109.0008E
IRWr325/35.3WILL ROGERS VORTAC114.1007E

Airport Services

Fuel available: 100LL
AUTOMATED CREDIT CARD FUEL SYSTEM.
Airframe service: NONE
Powerplant service: NONE
Bottled oxygen: NONE
Bulk oxygen: NONE

Runway Information

Runway 18/36

Dimensions: 2800 x 60 ft. / 853 x 18 m
Surface: concrete, in good condition
Weight bearing capacity: 
PCN 4 /F/D/Z/U
Runway edge lights: medium intensity
RUNWAY 18  RUNWAY 36
Latitude: 35-52.831000N35-52.369500N
Longitude: 097-57.177333W097-57.175167W
Elevation: 1072.0 ft.1053.0 ft.
Traffic pattern: leftright
Runway heading: 173 magnetic, 180 true353 magnetic, 360 true
Markings: basic, in good conditionbasic, in good condition
Obstructions: 28 ft. trees, 540 ft. from runway, 50 ft. right of centerline, 12:1 slope to clearnone

Airport Ownership and Management from official FAA records

Ownership: Publicly-owned
Owner: CITY OF KINGFISHER
301 N. MAIN STREET
KINGFISHER, OK 73750
Phone 405-375-3705
Manager: JASON EAST
301 N. MAIN STREET
KINGFISHER, OK 73750
Phone 405-375-4674

Airport Operational Statistics

Aircraft based on the field: 13
Single engine airplanes: 13
    
Aircraft operations: avg 77/week *
62% transient general aviation
37% local general aviation
<1% military
* for 12-month period ending 09 February 2018

Additional Remarks

FOR CD CTC OKE CITY APCH AT 405-681-5683.

Instrument Procedures

There are no published instrument procedures at F92.

Some nearby airports with instrument procedures:

KHSD - Sundance Airport (20 nm SE)
KJWG - Watonga Regional Airport (23 nm W)
KRCE - Clarence E Page Municipal Airport (24 nm S)
KRQO - El Reno Regional Airport (24 nm S)
KPWA - Wiley Post Airport (25 nm SE)
 
Loc | Ops | Rwys | IFR | FBO | Links
Com | Nav | Svcs | Stats | Notes
Area around F92 (Kingfisher Airport)
 
Road maps at: MapQuest Bing Google
 
Aerial photo
No photo
 
Sectional chart

 
Airport distance calculator
Flying to Kingfisher Airport? Find the distance to fly.

From to F92

Sunrise and sunset
Times for 26-Oct-2020
 Local
(UTC-5)
 Zulu
(UTC)
Morning civil twilight07:2412:24
Sunrise07:5012:50
Sunset18:4123:41
Evening civil twilight19:0700:07

Current date and time
Zulu (UTC)  26-Oct-2020 13:55:27
Local (UTC-5)  26-Oct-2020 08:55:27
 
METAR
KHSD 
20nm SE 
261335Z AUTO 36014G20KT 4SM BR BKN007 BKN010 OVC016 M00/M01 A3027 RMK A01
KJWG 
23nm W 
261335Z AUTO 36008KT 1SM UP BR OVC007 M03/M04 A3027 RMK AO2 P0001 T10291037
KRCE 
24nm S 
261335Z AUTO 01018G24KT 3SM VCTS UP M00/M01 A3024 RMK AO2 LTG DSNT E-S
KRQO 
24nm S 
261330Z AUTO 36009KT 3SM -SN BR OVC006 M01/M01 A3024 RMK AO2 LTG DSNT SE AND S P0003 T10061012
KPWA 
25nm SE 
261304Z 36014G21KT 4SM FZRA BR OVC006 01/M01 A3026 RMK AO2 LTG DSNT E-S CIG 004V010 PRESRR P0003 I1000 T00061011 $
KEND 
26nm N 
261257Z 36006KT 1SM -FZRAPL BR OVC008 M02/M02 A3030 RMK SLP274 P0000 T10201020 $
KGOK 
27nm E 
261253Z AUTO 02009G17KT 3SM UP BR BKN008 OVC014 00/00 A3022 RMK AO2 LTG DSNT E-S SLP242 P0012 I1000 T00000000
KWDG 
31nm N 
261250Z 34011KT 5SM BR BKN009 OVC016 M01/M02 A3030 RMK FZRAE25
KOKC 
34nm SE 
261336Z 34013KT 2SM TS -FZRA BR SCT008 BKN011CB OVC027 00/M01 A3026 RMK AO2 TWR VIS 3 LTG DSNT E-S OCNL LTGIC OHD-ALQDS CB OHD-ALQDS MOV NE P0013 T00001011
KTIK 
40nm SE 
261327Z 35016KT 1 1/2SM +RA BR VCTS OVC007 01/00 A3022 RMK TSE27 PRESRR SLP249
TAF
KEND 
26nm N 
261000Z 2610/2716 36008KT 8000 -FZDZ VCTS OVC007CB 690009 690901 QNH3021INS TEMPO 2610/2614 36012G18KT 8000 -FZRA TSRASN OVC005CB BECMG 2613/2614 36012G18KT 8000 -FZRA OVC006 690009 690901 QNH3025INS TEMPO 2614/2622 OVC004 BECMG 2621/2622 01008KT 8000 -FZRA OVC007 690009 690901 QNH3027INS TEMPO 2622/2704 OVC004 BECMG 2703/2704 01009KT 4800 -FZRA BR OVC001 690009 690901 QNH3035INS TX00/2610Z TNM03/2710Z
NOTAMs
Click for the latest NOTAMs
NOTAMs are issued by the DoD/FAA and will open in a separate window not controlled by AirNav.

 

 
 

FBO, Fuel Providers, and Aircraft Ground Support

  
 Business Name 
 
 Contact 
 
 Services / Description 
 
Fuel Prices
 
Comments
  
City of Kingfisher (FBO) 405-375-4901
405-368-9491
[web site]
[email]
Airport management, Aviation fuel, Aircraft parking (ramp or tiedown), Hangar leasing / sales

More info about City of Kingfisher (FBO)
independent
100LL
SS $3.63 
 Updated 22-Oct-2020
 
   1 read write
SS=Self service
Update Fuel Prices
 

Would you like to see your business listed on this page?

 If your business provides an interesting product or service to pilots, flight crews, aircraft, or users of the Kingfisher Airport, you should consider listing it here.  To start the listing process, click on the button below
 
Add a business
 

Other Pages about Kingfisher Airport

www.mlcafss.jccbi.gov/...
 
Update a link
 
Copyright © AirNav, LLC. All rights reserved. Privacy Policy  Contact